createdAt,value
2018-06-25T00:00:40.374Z,13.10
2018-06-25T00:03:08.052Z,13.00
2018-06-25T00:05:35.710Z,13.10
2018-06-25T00:08:03.342Z,13.00
2018-06-25T00:10:32.094Z,13.00
2018-06-25T00:12:59.724Z,13.00
2018-06-25T00:15:27.405Z,13.00
2018-06-25T00:17:55.080Z,13.10
2018-06-25T00:20:22.779Z,13.00
2018-06-25T00:22:50.412Z,12.90
2018-06-25T00:25:18.136Z,12.90
2018-06-25T00:27:45.851Z,12.90
2018-06-25T00:30:13.487Z,12.90
2018-06-25T00:32:41.149Z,12.90
2018-06-25T00:35:08.825Z,12.90
2018-06-25T00:37:36.460Z,13.00
2018-06-25T00:40:04.158Z,13.00
2018-06-25T00:42:31.815Z,13.00
2018-06-25T00:44:59.510Z,13.10
2018-06-25T00:47:27.174Z,13.10
2018-06-25T00:52:22.410Z,13.10
2018-06-25T00:54:50.047Z,13.10
2018-06-25T00:57:17.692Z,12.80
2018-06-25T00:59:55.273Z,12.80
2018-06-25T01:02:23.336Z,12.80
2018-06-25T01:04:51.003Z,12.90
2018-06-25T01:07:19.098Z,13.00
2018-06-25T01:09:46.902Z,12.90
2018-06-25T01:12:14.695Z,12.90
2018-06-25T01:14:42.901Z,12.90
2018-06-25T01:17:10.705Z,12.90
2018-06-25T01:19:38.363Z,12.90
2018-06-25T01:22:07.151Z,12.90
2018-06-25T01:24:35.258Z,12.90
2018-06-25T01:27:02.977Z,12.80
2018-06-25T01:29:30.735Z,12.90
2018-06-25T01:31:58.358Z,12.90
2018-06-25T01:34:26.019Z,13.00
2018-06-25T01:36:53.711Z,13.00
2018-06-25T01:39:21.343Z,13.00
2018-06-25T01:41:48.948Z,13.00
2018-06-25T01:44:16.642Z,13.00
2018-06-25T01:46:44.289Z,13.00
2018-06-25T01:49:12.943Z,13.10
2018-06-25T01:51:40.619Z,13.20
2018-06-25T01:54:08.313Z,13.10
2018-06-25T01:56:35.997Z,13.10
2018-06-25T01:59:03.654Z,13.10
2018-06-25T02:01:31.269Z,13.10
2018-06-25T02:03:58.940Z,13.10
2018-06-25T02:06:26.683Z,13.00
2018-06-25T02:08:54.378Z,13.00
2018-06-25T02:13:49.840Z,13.10
2018-06-25T02:16:17.452Z,13.10
2018-06-25T02:18:45.118Z,13.10
2018-06-25T02:21:12.780Z,13.10
2018-06-25T02:23:40.452Z,13.10
2018-06-25T02:26:08.108Z,13.10
2018-06-25T02:28:35.752Z,13.10
2018-06-25T02:31:03.459Z,13.20
2018-06-25T02:33:31.093Z,13.20
2018-06-25T02:35:58.654Z,13.20
2018-06-25T02:38:26.315Z,13.30
2018-06-25T02:40:53.926Z,13.30
2018-06-25T02:43:21.526Z,13.30
2018-06-25T02:45:49.172Z,13.40
2018-06-25T02:48:16.825Z,13.50
2018-06-25T02:50:44.459Z,13.60
2018-06-25T02:53:12.151Z,13.60
2018-06-25T02:55:39.823Z,13.60
2018-06-25T02:58:07.480Z,13.50
2018-06-25T03:00:35.144Z,13.50
2018-06-25T03:03:02.805Z,13.60
2018-06-25T03:05:30.533Z,13.60
2018-06-25T03:07:58.199Z,13.70
2018-06-25T03:10:25.903Z,13.70
2018-06-25T03:12:53.558Z,13.70
2018-06-25T03:15:21.194Z,13.70
2018-06-25T03:17:48.774Z,13.70
2018-06-25T03:20:16.418Z,13.70
2018-06-25T03:22:44.039Z,13.70
2018-06-25T03:25:11.680Z,13.70
2018-06-25T03:27:39.391Z,13.70
2018-06-25T03:30:07.076Z,13.70
2018-06-25T03:32:34.753Z,13.70
2018-06-25T03:35:02.442Z,13.60
2018-06-25T03:37:30.053Z,13.70
2018-06-25T03:42:32.145Z,13.70
2018-06-25T03:44:59.784Z,13.70
2018-06-25T03:47:27.411Z,13.80
2018-06-25T03:49:55.162Z,13.80
2018-06-25T03:52:22.814Z,13.70
2018-06-25T03:54:50.509Z,13.80
2018-06-25T03:57:18.158Z,13.80
2018-06-25T03:59:45.838Z,13.70
2018-06-25T04:02:13.519Z,13.80
2018-06-25T04:04:41.116Z,13.80
2018-06-25T04:07:08.793Z,13.80
2018-06-25T04:09:36.373Z,13.70
2018-06-25T04:12:04.044Z,13.70
2018-06-25T04:14:31.653Z,13.70
2018-06-25T04:16:59.341Z,13.70
2018-06-25T04:19:27.008Z,13.90
2018-06-25T04:21:54.671Z,14.00
2018-06-25T04:24:22.302Z,14.00
2018-06-25T04:26:49.923Z,14.00
2018-06-25T04:31:45.261Z,14.20
2018-06-25T04:34:13.012Z,14.10
2018-06-25T04:36:40.721Z,14.00
2018-06-25T04:39:09.306Z,14.20
2018-06-25T04:41:36.920Z,14.20
2018-06-25T04:46:32.444Z,14.30
2018-06-25T04:49:01.194Z,14.30
2018-06-25T04:51:28.941Z,14.30
2018-06-25T04:53:56.560Z,14.30
2018-06-25T04:56:24.206Z,14.20
2018-06-25T04:58:51.878Z,14.50
2018-06-25T05:01:19.688Z,14.60
2018-06-25T05:03:47.300Z,14.70
2018-06-25T05:06:14.942Z,14.80
2018-06-25T05:08:42.722Z,14.80
2018-06-25T05:11:10.351Z,14.90
2018-06-25T05:13:38.057Z,14.90
2018-06-25T05:16:05.967Z,14.80
2018-06-25T05:18:33.689Z,15.00
2018-06-25T05:21:01.397Z,15.00
2018-06-25T05:23:29.169Z,15.00
2018-06-25T05:25:56.845Z,15.10
2018-06-25T05:28:24.837Z,15.10
2018-06-25T05:30:52.667Z,15.20
2018-06-25T05:33:20.366Z,15.30
2018-06-25T05:35:48.114Z,15.30
2018-06-25T05:38:15.818Z,15.30
2018-06-25T05:40:43.536Z,15.30
2018-06-25T05:43:11.284Z,15.30
2018-06-25T05:45:38.962Z,15.40
2018-06-25T05:48:06.748Z,15.50
2018-06-25T05:50:34.540Z,15.50
2018-06-25T05:53:02.226Z,15.50
2018-06-25T05:55:29.899Z,15.60
2018-06-25T05:57:57.661Z,15.60
2018-06-25T06:00:25.328Z,15.80
2018-06-25T06:02:52.958Z,16.00
2018-06-25T06:05:20.599Z,16.20
2018-06-25T06:07:48.265Z,16.20
2018-06-25T06:10:16.097Z,16.10
2018-06-25T06:12:43.807Z,16.50
2018-06-25T06:15:11.525Z,16.90
2018-06-25T06:17:39.271Z,17.10
2018-06-25T06:20:07.037Z,17.20
2018-06-25T06:22:35.045Z,17.20
2018-06-25T06:25:02.744Z,17.30
2018-06-25T06:27:30.644Z,17.40
2018-06-25T06:29:58.706Z,17.80
2018-06-25T06:32:26.443Z,18.20
2018-06-25T06:34:54.348Z,18.50
2018-06-25T06:37:22.075Z,18.60
2018-06-25T06:39:49.796Z,18.30
2018-06-25T06:42:17.390Z,18.30
2018-06-25T06:44:45.067Z,18.60
2018-06-25T06:47:12.773Z,18.50
2018-06-25T06:49:40.468Z,18.80
2018-06-25T06:52:08.195Z,19.20
2018-06-25T06:54:35.904Z,19.40
2018-06-25T06:57:03.703Z,19.50
2018-06-25T06:59:31.369Z,19.20
2018-06-25T07:01:59.054Z,19.00
2018-06-25T07:04:26.706Z,19.30
2018-06-25T07:06:54.370Z,19.10
2018-06-25T07:09:22.130Z,18.40
2018-06-25T07:11:49.764Z,17.70
2018-06-25T07:14:17.533Z,17.60
2018-06-25T07:16:45.222Z,17.10
2018-06-25T07:19:12.986Z,16.90
2018-06-25T07:21:40.780Z,17.80
2018-06-25T07:24:08.571Z,18.90
2018-06-25T07:26:36.288Z,19.60
2018-06-25T07:29:04.045Z,20.30
2018-06-25T07:31:31.815Z,21.00
2018-06-25T07:33:59.450Z,21.20
2018-06-25T07:36:27.203Z,20.70
2018-06-25T07:38:54.901Z,21.10
2018-06-25T07:41:22.579Z,21.10
2018-06-25T07:43:50.305Z,21.00
2018-06-25T07:46:18.133Z,20.50
2018-06-25T07:48:45.959Z,20.50
2018-06-25T07:51:13.659Z,20.10
2018-06-25T07:53:41.484Z,19.70
2018-06-25T07:56:09.109Z,19.30
2018-06-25T07:58:36.767Z,18.60
2018-06-25T08:01:04.569Z,18.70
2018-06-25T08:03:32.216Z,18.40
2018-06-25T08:06:00.085Z,18.40
2018-06-25T08:08:27.725Z,18.40
2018-06-25T08:10:55.422Z,18.70
2018-06-25T08:13:23.200Z,18.80
2018-06-25T08:15:50.850Z,18.20
2018-06-25T08:18:18.625Z,18.70
2018-06-25T08:20:46.274Z,18.70
2018-06-25T08:23:14.060Z,19.20
2018-06-25T08:25:41.800Z,19.40
2018-06-25T08:28:09.519Z,20.00
2018-06-25T08:30:37.201Z,20.30
2018-06-25T08:33:04.962Z,20.10
2018-06-25T08:35:32.649Z,19.50
2018-06-25T08:38:00.351Z,19.60
2018-06-25T08:40:28.065Z,19.80
2018-06-25T08:42:55.775Z,20.20
2018-06-25T08:45:23.541Z,19.90
2018-06-25T08:47:51.175Z,19.70
2018-06-25T08:50:18.928Z,19.20
2018-06-25T08:52:46.573Z,19.10
2018-06-25T08:55:14.972Z,18.80
2018-06-25T08:57:42.582Z,18.50
2018-06-25T09:00:10.277Z,18.60
2018-06-25T09:02:37.998Z,18.30
2018-06-25T09:05:05.687Z,18.30
2018-06-25T09:07:33.329Z,18.50
2018-06-25T09:10:01.031Z,18.70
2018-06-25T09:12:28.739Z,18.80
2018-06-25T09:14:56.444Z,19.10
2018-06-25T09:17:24.167Z,18.80
2018-06-25T09:19:51.938Z,18.90
2018-06-25T09:22:19.704Z,19.00
2018-06-25T09:24:47.432Z,19.30
2018-06-25T09:27:15.136Z,19.70
2018-06-25T09:29:42.842Z,19.70
2018-06-25T09:32:10.516Z,19.50
2018-06-25T09:34:44.011Z,19.80
2018-06-25T09:37:11.721Z,20.00
2018-06-25T09:39:39.603Z,20.60
2018-06-25T09:42:07.393Z,20.70
2018-06-25T09:44:35.164Z,21.10
2018-06-25T09:49:30.780Z,21.80
2018-06-25T09:51:58.471Z,22.00
2018-06-25T09:54:26.234Z,21.90
2018-06-25T09:56:53.984Z,21.60
2018-06-25T09:59:21.684Z,21.30
2018-06-25T10:01:49.513Z,20.70
2018-06-25T10:04:17.516Z,20.10
2018-06-25T10:06:45.173Z,19.70
2018-06-25T10:09:12.910Z,19.50
2018-06-25T10:11:40.913Z,19.60
2018-06-25T10:14:08.545Z,19.40
2018-06-25T10:16:36.233Z,19.20
2018-06-25T10:19:04.586Z,18.40
2018-06-25T10:21:32.310Z,18.20
2018-06-25T10:24:00.163Z,18.00
2018-06-25T10:26:27.955Z,18.00
2018-06-25T10:28:55.726Z,17.80
2018-06-25T10:31:23.472Z,17.70
2018-06-25T10:33:51.184Z,17.90
2018-06-25T10:36:19.613Z,17.60
2018-06-25T10:38:47.263Z,17.60
2018-06-25T10:41:15.005Z,18.00
2018-06-25T10:43:42.774Z,18.20
2018-06-25T10:46:10.516Z,18.60
2018-06-25T10:48:38.254Z,18.50
2018-06-25T10:51:06.031Z,19.00
2018-06-25T10:53:33.748Z,19.50
2018-06-25T10:56:01.436Z,20.00
2018-06-25T10:58:29.207Z,20.60
2018-06-25T11:00:56.966Z,21.20
2018-06-25T11:03:24.668Z,21.80
2018-06-25T11:05:52.474Z,21.80
2018-06-25T11:08:20.342Z,21.60
2018-06-25T11:10:48.012Z,21.70
2018-06-25T11:13:15.758Z,20.80
2018-06-25T11:15:43.414Z,20.00
2018-06-25T11:18:11.181Z,20.70
2018-06-25T11:20:38.881Z,21.40
2018-06-25T11:23:06.585Z,21.30
2018-06-25T11:25:34.246Z,21.00
2018-06-25T11:28:01.923Z,21.50
2018-06-25T11:30:29.649Z,21.50
2018-06-25T11:33:01.862Z,21.60
2018-06-25T11:35:29.595Z,21.70
2018-06-25T11:37:57.252Z,22.00
2018-06-25T11:40:24.978Z,22.00
2018-06-25T11:42:52.673Z,22.10
2018-06-25T11:45:20.438Z,22.70
2018-06-25T11:47:48.237Z,22.70
2018-06-25T11:50:18.937Z,22.50
2018-06-25T11:52:49.147Z,22.90
2018-06-25T11:55:20.710Z,23.00
2018-06-25T11:57:48.412Z,24.00
2018-06-25T12:00:16.109Z,24.20
2018-06-25T12:02:44.025Z,23.80
2018-06-25T12:05:11.583Z,23.40
2018-06-25T12:07:40.946Z,23.30
2018-06-25T12:10:08.640Z,23.10
2018-06-25T12:12:36.544Z,22.20
2018-06-25T12:15:04.654Z,22.20
2018-06-25T12:17:34.254Z,24.10
2018-06-25T12:20:01.934Z,26.80
2018-06-25T12:22:29.582Z,28.80
2018-06-25T12:24:57.382Z,30.00
2018-06-25T12:27:25.111Z,31.50
2018-06-25T12:29:52.844Z,33.20
2018-06-25T12:32:20.684Z,33.00
2018-06-25T12:34:48.604Z,32.30
2018-06-25T12:37:16.315Z,29.70
2018-06-25T12:39:43.994Z,28.90
2018-06-25T12:42:11.915Z,31.30
2018-06-25T12:44:39.625Z,30.30
2018-06-25T12:47:07.265Z,28.80
2018-06-25T12:49:34.947Z,32.00
2018-06-25T12:52:02.615Z,35.40
2018-06-25T12:54:30.525Z,34.80
2018-06-25T12:56:58.239Z,32.90
2018-06-25T12:59:25.936Z,29.50
2018-06-25T13:01:53.735Z,27.20
2018-06-25T13:04:21.595Z,26.40
2018-06-25T13:06:49.371Z,26.40
2018-06-25T13:09:17.072Z,26.60
2018-06-25T13:11:44.899Z,27.40
2018-06-25T13:14:12.606Z,27.40
2018-06-25T13:16:40.326Z,29.80
2018-06-25T13:19:07.984Z,29.20
2018-06-25T13:21:35.644Z,29.40
2018-06-25T13:24:03.358Z,31.10
2018-06-25T13:26:32.928Z,33.50
2018-06-25T13:29:00.684Z,32.90
2018-06-25T13:31:28.400Z,33.90
2018-06-25T13:33:56.142Z,34.20
2018-06-25T13:36:23.910Z,32.80
2018-06-25T13:38:58.365Z,31.00
2018-06-25T13:41:26.218Z,29.50
2018-06-25T13:43:54.012Z,28.00
2018-06-25T13:46:21.839Z,28.80
2018-06-25T13:48:49.711Z,31.20
2018-06-25T13:51:17.737Z,31.00
2018-06-25T13:53:45.543Z,29.50
2018-06-25T13:56:13.310Z,29.80
2018-06-25T13:58:41.028Z,31.90
2018-06-25T14:01:08.838Z,33.50
2018-06-25T14:03:36.499Z,32.70
2018-06-25T14:06:04.358Z,33.00
2018-06-25T14:08:32.160Z,31.40
2018-06-25T14:10:59.954Z,32.10
2018-06-25T14:13:27.969Z,32.60
2018-06-25T14:15:55.786Z,31.80
2018-06-25T14:18:23.542Z,32.90
2018-06-25T14:20:51.422Z,34.80
2018-06-25T14:23:19.180Z,36.90
2018-06-25T14:25:52.524Z,36.60
2018-06-25T14:28:25.967Z,33.30
2018-06-25T14:30:59.461Z,31.30
2018-06-25T14:33:33.101Z,29.40
2018-06-25T14:36:00.790Z,28.30
2018-06-25T14:38:28.515Z,28.70
2018-06-25T14:40:56.228Z,31.20
2018-06-25T14:43:24.076Z,34.30
2018-06-25T14:48:19.521Z,33.70
2018-06-25T14:50:47.212Z,36.00
2018-06-25T14:53:14.936Z,37.00
2018-06-25T14:55:42.703Z,38.00
2018-06-25T14:58:10.447Z,38.30
2018-06-25T15:00:38.134Z,39.00
2018-06-25T15:03:05.931Z,38.70
2018-06-25T15:05:33.799Z,39.20
2018-06-25T15:08:01.444Z,39.80
2018-06-25T15:10:29.222Z,40.10
2018-06-25T15:12:57.172Z,37.80
2018-06-25T15:15:24.889Z,37.70
2018-06-25T15:17:52.580Z,38.20
2018-06-25T15:20:20.332Z,38.10
2018-06-25T15:22:47.990Z,37.40
2018-06-25T15:25:15.677Z,35.00
2018-06-25T15:27:43.347Z,34.40
2018-06-25T15:30:11.119Z,35.10
2018-06-25T15:32:38.936Z,35.00
2018-06-25T15:35:06.736Z,34.40
2018-06-25T15:37:34.411Z,33.40
2018-06-25T15:40:02.124Z,31.70
2018-06-25T15:42:29.864Z,31.60
2018-06-25T15:44:57.517Z,33.10
2018-06-25T15:47:25.302Z,34.00
2018-06-25T15:49:53.038Z,33.50
2018-06-25T15:52:21.126Z,30.30
2018-06-25T15:54:48.810Z,30.10
2018-06-25T15:57:16.552Z,31.20
2018-06-25T15:59:44.394Z,32.10
2018-06-25T16:02:12.171Z,32.10
2018-06-25T16:04:39.974Z,31.30
2018-06-25T16:07:07.794Z,32.00
2018-06-25T16:09:35.479Z,33.00
2018-06-25T16:12:03.192Z,33.00
2018-06-25T16:14:30.959Z,32.20
2018-06-25T16:16:58.693Z,32.90
2018-06-25T16:19:26.512Z,32.00
2018-06-25T16:21:54.218Z,29.60
2018-06-25T16:24:22.300Z,28.00
2018-06-25T16:26:50.056Z,26.70
2018-06-25T16:29:17.723Z,25.30
2018-06-25T16:31:45.493Z,25.20
2018-06-25T16:34:13.341Z,25.40
2018-06-25T16:36:40.986Z,24.90
2018-06-25T16:39:10.702Z,24.00
2018-06-25T16:41:38.540Z,23.70
2018-06-25T16:44:06.380Z,24.20
2018-06-25T16:46:34.144Z,24.80
2018-06-25T16:49:01.906Z,24.00
2018-06-25T16:51:29.977Z,23.70
2018-06-25T16:53:57.676Z,23.50
2018-06-25T16:56:25.678Z,23.60
2018-06-25T16:58:53.439Z,23.60
2018-06-25T17:01:21.239Z,23.20
2018-06-25T17:03:49.173Z,23.30
2018-06-25T17:06:17.126Z,23.40
2018-06-25T17:08:45.048Z,23.20
2018-06-25T17:11:13.046Z,23.20
2018-06-25T17:13:40.887Z,23.00
2018-06-25T17:16:08.814Z,22.80
2018-06-25T17:18:36.850Z,22.90
2018-06-25T17:21:04.709Z,23.10
2018-06-25T17:23:32.915Z,23.60
2018-06-25T17:26:01.009Z,24.00
2018-06-25T17:28:28.742Z,24.60
2018-06-25T17:30:56.749Z,25.30
2018-06-25T17:33:24.408Z,25.20
2018-06-25T17:35:52.130Z,26.30
2018-06-25T17:38:19.971Z,27.30
2018-06-25T17:40:48.966Z,27.30
2018-06-25T17:43:16.669Z,26.90
2018-06-25T17:45:44.284Z,27.20
2018-06-25T17:48:12.011Z,27.50
2018-06-25T17:50:39.680Z,29.10
2018-06-25T17:53:07.358Z,29.30
2018-06-25T17:55:34.960Z,29.30
2018-06-25T17:58:02.706Z,28.40
2018-06-25T18:00:30.328Z,27.60
2018-06-25T18:02:58.090Z,27.60
2018-06-25T18:05:25.753Z,26.60
2018-06-25T18:07:53.564Z,26.60
2018-06-25T18:12:49.001Z,23.70
2018-06-25T18:15:16.705Z,22.80
2018-06-25T18:17:44.389Z,22.30
2018-06-25T18:20:12.125Z,21.70
2018-06-25T18:22:39.808Z,21.50
2018-06-25T18:25:07.543Z,21.50
2018-06-25T18:27:36.341Z,21.00
2018-06-25T18:30:04.995Z,20.80
2018-06-25T18:32:32.674Z,20.40
2018-06-25T18:35:00.583Z,20.10
2018-06-25T18:37:28.259Z,19.90
2018-06-25T18:39:56.074Z,19.70
2018-06-25T18:42:23.894Z,19.40
2018-06-25T18:44:51.736Z,19.10
2018-06-25T18:47:19.386Z,19.00
2018-06-25T18:49:47.034Z,18.90
2018-06-25T18:52:14.709Z,18.90
2018-06-25T18:54:42.293Z,18.70
2018-06-25T18:57:10.002Z,18.60
2018-06-25T18:59:37.670Z,18.50
2018-06-25T19:02:05.327Z,18.40
2018-06-25T19:04:32.981Z,18.30
2018-06-25T19:07:00.918Z,18.30
2018-06-25T19:09:28.629Z,18.20
2018-06-25T19:11:56.405Z,18.10
2018-06-25T19:14:24.494Z,18.00
2018-06-25T19:16:52.632Z,18.00
2018-06-25T19:19:20.681Z,17.90
2018-06-25T19:21:48.813Z,17.80
2018-06-25T19:24:16.633Z,17.80
2018-06-25T19:26:45.099Z,17.70
2018-06-25T19:29:12.809Z,17.70
2018-06-25T19:31:40.818Z,17.60
2018-06-25T19:34:08.514Z,17.50
2018-06-25T19:36:36.256Z,17.50
2018-06-25T19:39:09.482Z,17.40
2018-06-25T19:41:37.500Z,17.30
2018-06-25T19:44:05.851Z,17.30
2018-06-25T19:46:33.590Z,17.20
2018-06-25T19:49:01.302Z,17.10
2018-06-25T19:51:28.966Z,17.10
2018-06-25T19:53:56.569Z,17.00
2018-06-25T19:56:24.199Z,16.80
2018-06-25T19:58:52.165Z,16.80
2018-06-25T20:01:19.894Z,16.70
2018-06-25T20:03:47.579Z,16.60
2018-06-25T20:06:15.472Z,16.50
2018-06-25T20:08:43.221Z,16.40
2018-06-25T20:11:11.169Z,16.30
2018-06-25T20:13:39.157Z,16.30
2018-06-25T20:16:06.851Z,16.20
2018-06-25T20:18:36.306Z,16.20
2018-06-25T20:21:04.705Z,16.10
2018-06-25T20:23:32.387Z,16.10
2018-06-25T20:26:00.220Z,16.20
2018-06-25T20:28:27.807Z,16.30
2018-06-25T20:30:55.393Z,16.40
2018-06-25T20:33:23.139Z,16.40
2018-06-25T20:35:50.817Z,16.50
2018-06-25T20:38:18.541Z,16.60
2018-06-25T20:40:46.233Z,16.60
2018-06-25T20:43:13.909Z,16.70
2018-06-25T20:45:41.582Z,16.80
2018-06-25T20:48:09.287Z,16.90
2018-06-25T20:50:36.893Z,17.00
2018-06-25T20:53:04.589Z,17.10
2018-06-25T20:55:32.242Z,17.20
2018-06-25T20:57:59.884Z,17.30
2018-06-25T21:00:27.602Z,17.40
2018-06-25T21:02:55.302Z,17.40
2018-06-25T21:05:22.996Z,17.50
2018-06-25T21:07:50.696Z,17.50
2018-06-25T21:10:18.474Z,17.60
2018-06-25T21:12:46.217Z,17.60
2018-06-25T21:15:13.834Z,17.60
2018-06-25T21:17:41.507Z,17.50
2018-06-25T21:20:09.171Z,17.50
2018-06-25T21:22:36.757Z,17.40
2018-06-25T21:25:05.109Z,17.40
2018-06-25T21:27:32.841Z,17.30
2018-06-25T21:30:00.500Z,17.30
2018-06-25T21:32:28.118Z,17.20
2018-06-25T21:34:55.731Z,17.30
2018-06-25T21:37:23.358Z,17.30
2018-06-25T21:39:51.006Z,17.20
2018-06-25T21:42:18.662Z,17.20
2018-06-25T21:44:46.342Z,17.20
2018-06-25T21:47:13.954Z,17.10
2018-06-25T21:49:41.642Z,17.10
2018-06-25T21:52:09.294Z,17.10
2018-06-25T21:54:36.954Z,17.00
2018-06-25T21:59:32.242Z,16.90
2018-06-25T22:01:59.898Z,16.90
2018-06-25T22:04:27.669Z,16.90
2018-06-25T22:06:55.472Z,16.80
2018-06-25T22:09:23.126Z,16.70
2018-06-25T22:11:50.786Z,16.70
2018-06-25T22:14:18.599Z,16.70
2018-06-25T22:16:46.245Z,16.60
2018-06-25T22:19:13.829Z,16.70
2018-06-25T22:21:41.719Z,16.70
2018-06-25T22:24:09.413Z,16.70
2018-06-25T22:26:37.040Z,16.70
2018-06-25T22:29:05.109Z,16.70
2018-06-25T22:31:32.755Z,16.60
2018-06-25T22:34:00.405Z,16.60
2018-06-25T22:36:28.052Z,16.60
2018-06-25T22:38:55.668Z,16.60
2018-06-25T22:41:23.279Z,16.50
2018-06-25T22:43:50.932Z,16.50
2018-06-25T22:46:18.592Z,16.40
2018-06-25T22:48:46.228Z,16.40
2018-06-25T22:51:13.913Z,16.40
2018-06-25T22:53:41.514Z,16.30
2018-06-25T22:56:09.092Z,16.20
2018-06-25T22:58:36.706Z,16.20
2018-06-25T23:01:04.542Z,16.10
2018-06-25T23:03:32.155Z,16.00
2018-06-25T23:05:59.774Z,16.00
2018-06-25T23:10:55.090Z,15.90
2018-06-25T23:15:50.425Z,15.90
2018-06-25T23:18:18.069Z,15.80
2018-06-25T23:20:45.690Z,15.90
2018-06-25T23:23:13.346Z,15.80
2018-06-25T23:25:40.959Z,15.80
2018-06-25T23:30:36.250Z,15.80
2018-06-25T23:33:03.822Z,15.90
2018-06-25T23:35:31.419Z,15.90
2018-06-25T23:37:58.959Z,15.90
2018-06-25T23:40:26.576Z,15.90
2018-06-25T23:42:54.221Z,16.00
2018-06-25T23:45:21.798Z,16.00
2018-06-25T23:47:49.424Z,16.00
2018-06-25T23:50:17.062Z,16.00
2018-06-25T23:52:44.726Z,16.10
2018-06-25T23:55:12.347Z,16.10
2018-06-25T23:57:39.924Z,16.10
